This is the latest recevied weather packets stored in our database for station/object JH7MHZ-13. If no packets are shown the sender has not sent any weather packets the latest 10 day(s).
| Time | Temp. | Humidity | Pressure | Rain* | Wind** | Luminosity | Snow |
|---|---|---|---|---|---|---|---|
| 1777766841 | 11.11° C | 78% | 991.8 hPa | 0 mm | - | - | - |
| 1777763239 | 8.33° C | 82% | 992.2 hPa | 0 mm | - | - | - |
| 1777759639 | 6.11° C | 92% | 992.5 hPa | 0 mm | - | - | - |
| 1777756038 | 4.44° C | 94% | 992.4 hPa | 0 mm | - | - | - |
| 1777752438 | 2.78° C | 94% | 992 hPa | 0 mm | - | - | - |
| 1777748837 | 2.22° C | 93% | 991.6 hPa | 0 mm | - | - | - |
| 1777745236 | 2.22° C | 93% | 991.7 hPa | 0 mm | - | - | - |
| 1777741636 | 2.78° C | 92% | 991 hPa | 0 mm | - | - | - |
| 1777738035 | 3.33° C | 90% | 990.7 hPa | 0 mm | - | - | - |
| 1777734435 | 3.89° C | 87% | 990.9 hPa | 0 mm | - | - | - |
| 1777730834 | 5° C | 86% | 990.6 hPa | 0 mm | - | - | - |
| 1777727234 | 6.11° C | 82% | 990.7 hPa | 0 mm | - | - | - |
| 1777723633 | 6.67° C | 79% | 990.2 hPa | 0 mm | - | - | - |
| 1777720032 | 7.78° C | 76% | 989.5 hPa | 0 mm | - | - | - |
| 1777716432 | 10.56° C | 59% | 988.4 hPa | 0 mm | - | - | - |
| 1777712833 | 12.78° C | 49% | 987.3 hPa | 0 mm | - | - | - |
| 1777709231 | 14.44° C | 42% | 986.6 hPa | 0 mm | - | - | - |
| 1777705630 | 16.11° C | 39% | 985.3 hPa | 0 mm | - | - | - |
| 1777702030 | 17.22° C | 39% | 983.9 hPa | 0 mm | - | - | - |
| 1777698429 | 17.78° C | 43% | 982.9 hPa | 0 mm | - | - | - |
| 1777694828 | 17.78° C | 56% | 981.1 hPa | 0 mm | - | - | - |
| 1777691229 | 17.78° C | 58% | 979.6 hPa | 0 mm | - | - | - |
| 1777687629 | 16.67° C | 72% | 978.7 hPa | 0 mm | - | - | - |
| 1777684027 | 14.44° C | 82% | 978.2 hPa | 0 mm | - | - | - |
| 1777680427 | 13.33° C | 85% | 977.3 hPa | 0 mm | - | - | - |
* Rain latest hour (hover to see other rain measurements)
** Current wind speed in m/s (hover to see current wind gust speed)